sensor_id;sensor_type;location;lat;lon;timestamp;temperature;humidity
71627;DHT22;59475;52.464;13.590;2023-05-20T00:00:10;10.44;81.07
71627;DHT22;59475;52.464;13.590;2023-05-20T00:02:35;10.43;81.38
71627;DHT22;59475;52.464;13.590;2023-05-20T00:05:01;10.39;81.54
71627;DHT22;59475;52.464;13.590;2023-05-20T00:07:26;10.39;81.59
71627;DHT22;59475;52.464;13.590;2023-05-20T00:09:52;10.33;81.84
71627;DHT22;59475;52.464;13.590;2023-05-20T00:12:17;10.33;81.90
71627;DHT22;59475;52.464;13.590;2023-05-20T00:14:44;10.29;81.99
71627;DHT22;59475;52.464;13.590;2023-05-20T00:17:09;10.26;82.31
71627;DHT22;59475;52.464;13.590;2023-05-20T00:19:34;10.24;82.36
71627;DHT22;59475;52.464;13.590;2023-05-20T00:22:00;10.20;82.46
71627;DHT22;59475;52.464;13.590;2023-05-20T00:24:26;10.24;82.49
71627;DHT22;59475;52.464;13.590;2023-05-20T00:26:51;10.17;82.83
71627;DHT22;59475;52.464;13.590;2023-05-20T00:29:18;10.17;83.01
71627;DHT22;59475;52.464;13.590;2023-05-20T00:31:43;10.16;83.01
71627;DHT22;59475;52.464;13.590;2023-05-20T00:34:09;10.12;83.23
71627;DHT22;59475;52.464;13.590;2023-05-20T00:36:34;10.10;83.44
71627;DHT22;59475;52.464;13.590;2023-05-20T00:39:00;10.10;83.45
71627;DHT22;59475;52.464;13.590;2023-05-20T00:41:26;10.09;83.78
71627;DHT22;59475;52.464;13.590;2023-05-20T00:43:55;10.06;84.13
71627;DHT22;59475;52.464;13.590;2023-05-20T00:46:21;10.05;84.14
71627;DHT22;59475;52.464;13.590;2023-05-20T00:48:48;9.99;84.37
71627;DHT22;59475;52.464;13.590;2023-05-20T00:51:14;10.01;84.38
71627;DHT22;59475;52.464;13.590;2023-05-20T00:53:40;10.01;84.69
71627;DHT22;59475;52.464;13.590;2023-05-20T00:56:07;9.96;84.88
71627;DHT22;59475;52.464;13.590;2023-05-20T00:58:33;9.99;85.03
71627;DHT22;59475;52.464;13.590;2023-05-20T01:01:01;9.96;85.07
71627;DHT22;59475;52.464;13.590;2023-05-20T01:03:27;9.96;85.24
71627;DHT22;59475;52.464;13.590;2023-05-20T01:05:52;9.95;85.29
71627;DHT22;59475;52.464;13.590;2023-05-20T01:08:18;9.95;85.50
71627;DHT22;59475;52.464;13.590;2023-05-20T01:10:45;9.95;85.72
71627;DHT22;59475;52.464;13.590;2023-05-20T01:13:21;9.95;85.76
71627;DHT22;59475;52.464;13.590;2023-05-20T01:15:53;9.89;85.95
71627;DHT22;59475;52.464;13.590;2023-05-20T01:18:21;9.86;86.08
71627;DHT22;59475;52.464;13.590;2023-05-20T01:20:52;9.86;86.27
71627;DHT22;59475;52.464;13.590;2023-05-20T01:23:18;9.88;86.13
71627;DHT22;59475;52.464;13.590;2023-05-20T01:25:44;9.82;86.33
71627;DHT22;59475;52.464;13.590;2023-05-20T01:28:09;9.81;86.40
71627;DHT22;59475;52.464;13.590;2023-05-20T01:30:45;9.79;86.69
71627;DHT22;59475;52.464;13.590;2023-05-20T01:33:13;9.78;86.37
71627;DHT22;59475;52.464;13.590;2023-05-20T01:35:40;9.79;86.72
71627;DHT22;59475;52.464;13.590;2023-05-20T01:38:06;9.79;86.50
71627;DHT22;59475;52.464;13.590;2023-05-20T01:40:33;9.81;86.78
71627;DHT22;59475;52.464;13.590;2023-05-20T01:42:59;9.85;86.68
71627;DHT22;59475;52.464;13.590;2023-05-20T01:45:24;9.84;86.72
71627;DHT22;59475;52.464;13.590;2023-05-20T01:47:50;9.79;86.76
71627;DHT22;59475;52.464;13.590;2023-05-20T01:50:16;9.79;86.81
71627;DHT22;59475;52.464;13.590;2023-05-20T01:52:41;9.79;86.78
71627;DHT22;59475;52.464;13.590;2023-05-20T01:55:06;9.88;86.89
71627;DHT22;59475;52.464;13.590;2023-05-20T01:57:32;9.85;86.81
71627;DHT22;59475;52.464;13.590;2023-05-20T01:59:57;9.92;86.79
71627;DHT22;59475;52.464;13.590;2023-05-20T02:02:23;9.89;86.76
71627;DHT22;59475;52.464;13.590;2023-05-20T02:04:49;9.92;86.71
71627;DHT22;59475;52.464;13.590;2023-05-20T02:07:16;9.93;86.76
71627;DHT22;59475;52.464;13.590;2023-05-20T02:09:43;9.96;86.74
71627;DHT22;59475;52.464;13.590;2023-05-20T02:12:08;10.05;86.53
71627;DHT22;59475;52.464;13.590;2023-05-20T02:14:40;10.09;86.28
71627;DHT22;59475;52.464;13.590;2023-05-20T02:17:05;10.16;85.73
71627;DHT22;59475;52.464;13.590;2023-05-20T02:19:31;10.16;85.72
71627;DHT22;59475;52.464;13.590;2023-05-20T02:21:56;10.23;85.73
71627;DHT22;59475;52.464;13.590;2023-05-20T02:24:21;10.23;85.64
71627;DHT22;59475;52.464;13.590;2023-05-20T02:26:47;10.28;85.50
71627;DHT22;59475;52.464;13.590;2023-05-20T02:29:15;10.36;85.28
71627;DHT22;59475;52.464;13.590;2023-05-20T02:31:40;10.29;85.51
71627;DHT22;59475;52.464;13.590;2023-05-20T02:34:06;10.30;85.49
71627;DHT22;59475;52.464;13.590;2023-05-20T02:36:31;10.32;85.47
71627;DHT22;59475;52.464;13.590;2023-05-20T02:38:57;10.34;85.42
71627;DHT22;59475;52.464;13.590;2023-05-20T02:41:22;10.41;85.26
71627;DHT22;59475;52.464;13.590;2023-05-20T02:43:47;10.40;85.38
71627;DHT22;59475;52.464;13.590;2023-05-20T02:46:13;10.39;85.35
71627;DHT22;59475;52.464;13.590;2023-05-20T02:48:39;10.46;85.28
71627;DHT22;59475;52.464;13.590;2023-05-20T02:51:05;10.46;85.25
71627;DHT22;59475;52.464;13.590;2023-05-20T02:53:30;10.53;85.22
71627;DHT22;59475;52.464;13.590;2023-05-20T02:55:56;10.54;85.18
71627;DHT22;59475;52.464;13.590;2023-05-20T02:58:22;10.56;85.06
71627;DHT22;59475;52.464;13.590;2023-05-20T03:00:53;10.60;84.94
71627;DHT22;59475;52.464;13.590;2023-05-20T03:03:18;10.64;84.81
71627;DHT22;59475;52.464;13.590;2023-05-20T03:05:43;10.58;85.06
71627;DHT22;59475;52.464;13.590;2023-05-20T03:08:10;10.61;85.15
71627;DHT22;59475;52.464;13.590;2023-05-20T03:10:39;10.60;85.19
71627;DHT22;59475;52.464;13.590;2023-05-20T03:13:06;10.64;84.99
71627;DHT22;59475;52.464;13.590;2023-05-20T03:15:38;10.67;84.99
71627;DHT22;59475;52.464;13.590;2023-05-20T03:18:05;10.71;84.95
71627;DHT22;59475;52.464;13.590;2023-05-20T03:20:31;10.69;85.01
71627;DHT22;59475;52.464;13.590;2023-05-20T03:23:03;10.77;84.89
71627;DHT22;59475;52.464;13.590;2023-05-20T03:25:28;10.78;84.78
71627;DHT22;59475;52.464;13.590;2023-05-20T03:27:54;10.81;84.62
71627;DHT22;59475;52.464;13.590;2023-05-20T03:30:20;10.77;84.99
71627;DHT22;59475;52.464;13.590;2023-05-20T03:32:45;10.81;84.80
71627;DHT22;59475;52.464;13.590;2023-05-20T03:35:11;10.81;84.71
71627;DHT22;59475;52.464;13.590;2023-05-20T03:37:37;10.82;84.81
71627;DHT22;59475;52.464;13.590;2023-05-20T03:40:02;10.87;84.57
71627;DHT22;59475;52.464;13.590;2023-05-20T03:42:32;10.85;84.51
71627;DHT22;59475;52.464;13.590;2023-05-20T03:44:58;10.87;84.76
71627;DHT22;59475;52.464;13.590;2023-05-20T03:47:24;10.89;84.59
71627;DHT22;59475;52.464;13.590;2023-05-20T03:49:50;10.89;84.62
71627;DHT22;59475;52.464;13.590;2023-05-20T03:52:15;10.88;84.69
71627;DHT22;59475;52.464;13.590;2023-05-20T03:54:40;10.92;84.65
71627;DHT22;59475;52.464;13.590;2023-05-20T03:57:06;10.91;84.76
71627;DHT22;59475;52.464;13.590;2023-05-20T03:59:32;10.92;84.76
71627;DHT22;59475;52.464;13.590;2023-05-20T04:01:57;11.02;84.42
71627;DHT22;59475;52.464;13.590;2023-05-20T04:04:23;11.05;84.37
71627;DHT22;59475;52.464;13.590;2023-05-20T04:06:48;11.04;84.25
71627;DHT22;59475;52.464;13.590;2023-05-20T04:09:13;11.02;84.53
71627;DHT22;59475;52.464;13.590;2023-05-20T04:11:39;11.02;84.67
71627;DHT22;59475;52.464;13.590;2023-05-20T04:14:05;11.04;84.57
71627;DHT22;59475;52.464;13.590;2023-05-20T04:16:30;11.05;84.60
71627;DHT22;59475;52.464;13.590;2023-05-20T04:18:56;11.11;84.64
71627;DHT22;59475;52.464;13.590;2023-05-20T04:21:23;11.13;84.49
71627;DHT22;59475;52.464;13.590;2023-05-20T04:23:48;11.11;84.51
71627;DHT22;59475;52.464;13.590;2023-05-20T04:26:14;11.08;84.63
71627;DHT22;59475;52.464;13.590;2023-05-20T04:28:39;11.15;84.52
71627;DHT22;59475;52.464;13.590;2023-05-20T04:31:06;11.18;84.48
71627;DHT22;59475;52.464;13.590;2023-05-20T04:33:32;11.13;84.63
71627;DHT22;59475;52.464;13.590;2023-05-20T04:35:58;11.19;84.67
71627;DHT22;59475;52.464;13.590;2023-05-20T04:38:26;11.27;84.44
71627;DHT22;59475;52.464;13.590;2023-05-20T04:40:58;11.26;84.46
71627;DHT22;59475;52.464;13.590;2023-05-20T04:43:24;11.27;84.51
71627;DHT22;59475;52.464;13.590;2023-05-20T04:45:50;11.27;84.65
71627;DHT22;59475;52.464;13.590;2023-05-20T04:48:17;11.32;84.65
71627;DHT22;59475;52.464;13.590;2023-05-20T04:50:43;11.34;84.42
71627;DHT22;59475;52.464;13.590;2023-05-20T04:53:09;11.36;84.46
71627;DHT22;59475;52.464;13.590;2023-05-20T04:55:34;11.30;84.56
71627;DHT22;59475;52.464;13.590;2023-05-20T04:58:01;11.34;84.61
71627;DHT22;59475;52.464;13.590;2023-05-20T05:00:27;11.32;84.55
71627;DHT22;59475;52.464;13.590;2023-05-20T05:02:53;11.36;84.66
71627;DHT22;59475;52.464;13.590;2023-05-20T05:05:18;11.39;84.80
71627;DHT22;59475;52.464;13.590;2023-05-20T05:07:43;11.43;84.72
71627;DHT22;59475;52.464;13.590;2023-05-20T05:10:09;11.50;84.64
71627;DHT22;59475;52.464;13.590;2023-05-20T05:12:35;11.50;84.51
71627;DHT22;59475;52.464;13.590;2023-05-20T05:15:00;11.51;84.42
71627;DHT22;59475;52.464;13.590;2023-05-20T05:17:26;11.57;84.37
71627;DHT22;59475;52.464;13.590;2023-05-20T05:19:52;11.60;84.36
71627;DHT22;59475;52.464;13.590;2023-05-20T05:22:18;11.59;84.46
71627;DHT22;59475;52.464;13.590;2023-05-20T05:24:43;11.61;84.46
71627;DHT22;59475;52.464;13.590;2023-05-20T05:27:09;11.61;84.47
71627;DHT22;59475;52.464;13.590;2023-05-20T05:29:34;11.67;84.41
71627;DHT22;59475;52.464;13.590;2023-05-20T05:32:00;11.74;84.19
71627;DHT22;59475;52.464;13.590;2023-05-20T05:34:25;11.78;84.24
71627;DHT22;59475;52.464;13.590;2023-05-20T05:36:50;11.87;84.07
71627;DHT22;59475;52.464;13.590;2023-05-20T05:39:16;11.84;84.11
71627;DHT22;59475;52.464;13.590;2023-05-20T05:41:41;11.87;84.14
71627;DHT22;59475;52.464;13.590;2023-05-20T05:44:07;11.87;84.24
71627;DHT22;59475;52.464;13.590;2023-05-20T05:46:32;11.92;84.11
71627;DHT22;59475;52.464;13.590;2023-05-20T05:48:57;11.92;84.15
71627;DHT22;59475;52.464;13.590;2023-05-20T05:51:23;11.95;83.95
71627;DHT22;59475;52.464;13.590;2023-05-20T05:53:49;11.99;83.95
71627;DHT22;59475;52.464;13.590;2023-05-20T05:56:15;11.95;84.16
71627;DHT22;59475;52.464;13.590;2023-05-20T05:58:40;12.05;84.03
71627;DHT22;59475;52.464;13.590;2023-05-20T06:01:05;12.12;83.76
71627;DHT22;59475;52.464;13.590;2023-05-20T06:03:31;12.21;83.38
71627;DHT22;59475;52.464;13.590;2023-05-20T06:05:56;12.18;83.35
71627;DHT22;59475;52.464;13.590;2023-05-20T06:08:22;12.22;83.66
71627;DHT22;59475;52.464;13.590;2023-05-20T06:10:48;12.15;83.35
71627;DHT22;59475;52.464;13.590;2023-05-20T06:13:14;12.16;83.83
71627;DHT22;59475;52.464;13.590;2023-05-20T06:15:39;12.18;83.59
71627;DHT22;59475;52.464;13.590;2023-05-20T06:18:05;12.19;83.61
71627;DHT22;59475;52.464;13.590;2023-05-20T06:20:30;12.18;83.61
71627;DHT22;59475;52.464;13.590;2023-05-20T06:22:56;12.24;83.60
71627;DHT22;59475;52.464;13.590;2023-05-20T06:25:21;12.33;83.45
71627;DHT22;59475;52.464;13.590;2023-05-20T06:27:47;12.35;83.15
71627;DHT22;59475;52.464;13.590;2023-05-20T06:30:13;12.36;83.12
71627;DHT22;59475;52.464;13.590;2023-05-20T06:32:38;12.40;83.13
71627;DHT22;59475;52.464;13.590;2023-05-20T06:35:04;12.40;83.32
71627;DHT22;59475;52.464;13.590;2023-05-20T06:37:29;12.47;83.13
71627;DHT22;59475;52.464;13.590;2023-05-20T06:39:55;12.49;82.71
71627;DHT22;59475;52.464;13.590;2023-05-20T06:42:20;12.54;82.49
71627;DHT22;59475;52.464;13.590;2023-05-20T06:44:46;12.65;82.32
71627;DHT22;59475;52.464;13.590;2023-05-20T06:47:14;12.73;82.44
71627;DHT22;59475;52.464;13.590;2023-05-20T06:49:41;12.85;81.87
71627;DHT22;59475;52.464;13.590;2023-05-20T06:52:06;13.01;81.50
71627;DHT22;59475;52.464;13.590;2023-05-20T06:54:32;13.14;80.58
71627;DHT22;59475;52.464;13.590;2023-05-20T06:57:00;13.15;80.76
71627;DHT22;59475;52.464;13.590;2023-05-20T06:59:25;13.25;80.64
71627;DHT22;59475;52.464;13.590;2023-05-20T07:01:50;13.39;80.38
71627;DHT22;59475;52.464;13.590;2023-05-20T07:04:16;13.55;79.66
71627;DHT22;59475;52.464;13.590;2023-05-20T07:06:41;13.50;79.04
71627;DHT22;59475;52.464;13.590;2023-05-20T07:09:07;13.55;79.25
71627;DHT22;59475;52.464;13.590;2023-05-20T07:11:32;13.50;79.31
71627;DHT22;59475;52.464;13.590;2023-05-20T07:13:57;13.53;79.30
71627;DHT22;59475;52.464;13.590;2023-05-20T07:16:23;13.55;79.11
71627;DHT22;59475;52.464;13.590;2023-05-20T07:18:48;13.45;79.54
71627;DHT22;59475;52.464;13.590;2023-05-20T07:21:15;13.45;79.80
71627;DHT22;59475;52.464;13.590;2023-05-20T07:23:40;13.49;79.75
71627;DHT22;59475;52.464;13.590;2023-05-20T07:26:05;13.49;79.75
71627;DHT22;59475;52.464;13.590;2023-05-20T07:28:31;13.59;79.65
71627;DHT22;59475;52.464;13.590;2023-05-20T07:30:56;13.78;79.50
71627;DHT22;59475;52.464;13.590;2023-05-20T07:33:22;13.78;78.76
71627;DHT22;59475;52.464;13.590;2023-05-20T07:35:48;13.85;78.45
71627;DHT22;59475;52.464;13.590;2023-05-20T07:38:13;13.76;78.88
71627;DHT22;59475;52.464;13.590;2023-05-20T07:40:39;13.83;78.88
71627;DHT22;59475;52.464;13.590;2023-05-20T07:43:08;14.03;78.61
71627;DHT22;59475;52.464;13.590;2023-05-20T07:45:34;14.14;78.46
71627;DHT22;59475;52.464;13.590;2023-05-20T07:48:01;14.29;77.89
71627;DHT22;59475;52.464;13.590;2023-05-20T07:50:26;14.33;77.60
71627;DHT22;59475;52.464;13.590;2023-05-20T07:52:52;14.52;76.59
71627;DHT22;59475;52.464;13.590;2023-05-20T07:55:17;14.49;76.58
71627;DHT22;59475;52.464;13.590;2023-05-20T07:57:42;14.58;76.30
71627;DHT22;59475;52.464;13.590;2023-05-20T08:00:08;14.68;76.43
71627;DHT22;59475;52.464;13.590;2023-05-20T08:02:34;15.04;76.20
71627;DHT22;59475;52.464;13.590;2023-05-20T08:04:59;15.24;74.53
71627;DHT22;59475;52.464;13.590;2023-05-20T08:07:24;15.39;74.13
71627;DHT22;59475;52.464;13.590;2023-05-20T08:09:50;15.56;73.16
71627;DHT22;59475;52.464;13.590;2023-05-20T08:12:15;15.53;73.34
71627;DHT22;59475;52.464;13.590;2023-05-20T08:14:41;15.38;73.98
71627;DHT22;59475;52.464;13.590;2023-05-20T08:17:07;15.69;73.94
71627;DHT22;59475;52.464;13.590;2023-05-20T08:19:33;15.90;72.88
71627;DHT22;59475;52.464;13.590;2023-05-20T08:21:58;16.17;71.55
71627;DHT22;59475;52.464;13.590;2023-05-20T08:24:23;16.25;71.10
71627;DHT22;59475;52.464;13.590;2023-05-20T08:26:49;16.37;70.67
71627;DHT22;59475;52.464;13.590;2023-05-20T08:29:14;16.37;71.13
71627;DHT22;59475;52.464;13.590;2023-05-20T08:31:40;16.20;71.21
71627;DHT22;59475;52.464;13.590;2023-05-20T08:34:05;16.17;71.21
71627;DHT22;59475;52.464;13.590;2023-05-20T08:36:32;16.07;70.94
71627;DHT22;59475;52.464;13.590;2023-05-20T08:38:57;15.97;71.21
71627;DHT22;59475;52.464;13.590;2023-05-20T08:41:22;15.99;71.72
71627;DHT22;59475;52.464;13.590;2023-05-20T08:43:49;15.67;72.21
71627;DHT22;59475;52.464;13.590;2023-05-20T08:46:16;15.56;72.75
71627;DHT22;59475;52.464;13.590;2023-05-20T08:48:42;15.58;72.65
71627;DHT22;59475;52.464;13.590;2023-05-20T08:51:09;15.69;72.94
71627;DHT22;59475;52.464;13.590;2023-05-20T08:53:37;15.72;72.23
71627;DHT22;59475;52.464;13.590;2023-05-20T08:56:02;16.03;72.11
71627;DHT22;59475;52.464;13.590;2023-05-20T08:58:28;16.22;70.97
71627;DHT22;59475;52.464;13.590;2023-05-20T09:00:54;16.32;70.86
71627;DHT22;59475;52.464;13.590;2023-05-20T09:03:20;16.37;71.04
71627;DHT22;59475;52.464;13.590;2023-05-20T09:05:46;16.29;70.99
71627;DHT22;59475;52.464;13.590;2023-05-20T09:08:12;16.10;71.07
71627;DHT22;59475;52.464;13.590;2023-05-20T09:10:39;16.16;71.26
71627;DHT22;59475;52.464;13.590;2023-05-20T09:13:05;16.03;70.98
71627;DHT22;59475;52.464;13.590;2023-05-20T09:15:32;15.97;71.54
71627;DHT22;59475;52.464;13.590;2023-05-20T09:18:01;15.97;71.66
71627;DHT22;59475;52.464;13.590;2023-05-20T09:20:27;15.93;71.40
71627;DHT22;59475;52.464;13.590;2023-05-20T09:22:59;16.00;71.56
71627;DHT22;59475;52.464;13.590;2023-05-20T09:25:25;16.10;71.53
71627;DHT22;59475;52.464;13.590;2023-05-20T09:27:51;16.17;71.24
71627;DHT22;59475;52.464;13.590;2023-05-20T09:30:20;16.27;70.42
71627;DHT22;59475;52.464;13.590;2023-05-20T09:32:52;16.35;70.09
71627;DHT22;59475;52.464;13.590;2023-05-20T09:35:18;16.14;70.90
71627;DHT22;59475;52.464;13.590;2023-05-20T09:37:45;16.10;71.12
71627;DHT22;59475;52.464;13.590;2023-05-20T09:40:12;16.01;71.38
71627;DHT22;59475;52.464;13.590;2023-05-20T09:42:43;15.93;72.04
71627;DHT22;59475;52.464;13.590;2023-05-20T09:45:10;15.86;71.85
71627;DHT22;59475;52.464;13.590;2023-05-20T09:47:37;15.89;71.82
71627;DHT22;59475;52.464;13.590;2023-05-20T09:50:05;15.96;72.24
71627;DHT22;59475;52.464;13.590;2023-05-20T09:52:34;15.99;72.36
71627;DHT22;59475;52.464;13.590;2023-05-20T09:55:01;15.99;72.44
71627;DHT22;59475;52.464;13.590;2023-05-20T09:57:29;16.06;71.56
71627;DHT22;59475;52.464;13.590;2023-05-20T09:59:55;16.16;71.79
71627;DHT22;59475;52.464;13.590;2023-05-20T10:02:20;16.31;71.50
71627;DHT22;59475;52.464;13.590;2023-05-20T10:04:48;16.47;70.19
71627;DHT22;59475;52.464;13.590;2023-05-20T10:07:47;16.52;70.64
71627;DHT22;59475;52.464;13.590;2023-05-20T10:12:54;16.72;69.31
71627;DHT22;59475;52.464;13.590;2023-05-20T10:20:49;16.90;69.11
71627;DHT22;59475;52.464;13.590;2023-05-20T10:23:28;17.00;68.87
71627;DHT22;59475;52.464;13.590;2023-05-20T10:25:55;17.21;68.67
71627;DHT22;59475;52.464;13.590;2023-05-20T10:28:28;17.40;67.95
71627;DHT22;59475;52.464;13.590;2023-05-20T10:30:54;17.45;66.53
71627;DHT22;59475;52.464;13.590;2023-05-20T10:33:20;17.58;66.88
71627;DHT22;59475;52.464;13.590;2023-05-20T10:35:52;17.52;66.63
71627;DHT22;59475;52.464;13.590;2023-05-20T10:38:17;17.32;67.32
71627;DHT22;59475;52.464;13.590;2023-05-20T10:40:44;17.20;68.02
71627;DHT22;59475;52.464;13.590;2023-05-20T10:43:11;17.14;68.44
71627;DHT22;59475;52.464;13.590;2023-05-20T10:45:54;17.04;68.26
71627;DHT22;59475;52.464;13.590;2023-05-20T10:50:48;17.38;67.78
71627;DHT22;59475;52.464;13.590;2023-05-20T10:53:14;17.47;67.68
71627;DHT22;59475;52.464;13.590;2023-05-20T10:55:40;17.65;68.36
71627;DHT22;59475;52.464;13.590;2023-05-20T10:58:06;17.82;67.30
71627;DHT22;59475;52.464;13.590;2023-05-20T11:00:35;17.89;67.03
71627;DHT22;59475;52.464;13.590;2023-05-20T11:03:02;18.23;65.74
71627;DHT22;59475;52.464;13.590;2023-05-20T11:05:29;18.40;64.75
71627;DHT22;59475;52.464;13.590;2023-05-20T11:08:06;18.41;65.73
71627;DHT22;59475;52.464;13.590;2023-05-20T11:10:33;18.48;65.16
71627;DHT22;59475;52.464;13.590;2023-05-20T11:13:00;18.48;64.58
71627;DHT22;59475;52.464;13.590;2023-05-20T11:15:26;19.06;63.58
71627;DHT22;59475;52.464;13.590;2023-05-20T11:17:55;19.05;63.68
71627;DHT22;59475;52.464;13.590;2023-05-20T11:20:22;19.17;63.15
71627;DHT22;59475;52.464;13.590;2023-05-20T11:22:49;19.13;63.40
71627;DHT22;59475;52.464;13.590;2023-05-20T11:25:16;19.15;63.23
71627;DHT22;59475;52.464;13.590;2023-05-20T11:27:42;19.47;62.01
71627;DHT22;59475;52.464;13.590;2023-05-20T11:30:09;19.33;62.46
71627;DHT22;59475;52.464;13.590;2023-05-20T11:32:35;19.03;63.20
71627;DHT22;59475;52.464;13.590;2023-05-20T11:35:01;19.05;63.12
71627;DHT22;59475;52.464;13.590;2023-05-20T11:37:26;18.81;63.33
71627;DHT22;59475;52.464;13.590;2023-05-20T11:40:03;18.60;64.14
71627;DHT22;59475;52.464;13.590;2023-05-20T11:42:31;18.48;64.63
71627;DHT22;59475;52.464;13.590;2023-05-20T11:44:59;18.45;64.55
71627;DHT22;59475;52.464;13.590;2023-05-20T11:47:24;18.44;65.58
71627;DHT22;59475;52.464;13.590;2023-05-20T11:49:53;18.41;65.47
71627;DHT22;59475;52.464;13.590;2023-05-20T11:52:20;18.36;65.75
71627;DHT22;59475;52.464;13.590;2023-05-20T11:54:51;18.48;64.98
71627;DHT22;59475;52.464;13.590;2023-05-20T11:57:18;18.57;64.80
71627;DHT22;59475;52.464;13.590;2023-05-20T11:59:43;18.76;64.40
71627;DHT22;59475;52.464;13.590;2023-05-20T12:02:09;19.19;63.23
71627;DHT22;59475;52.464;13.590;2023-05-20T12:04:34;19.64;62.40
71627;DHT22;59475;52.464;13.590;2023-05-20T12:07:00;19.28;62.46
71627;DHT22;59475;52.464;13.590;2023-05-20T12:09:26;19.34;63.07
71627;DHT22;59475;52.464;13.590;2023-05-20T12:11:51;19.77;61.68
71627;DHT22;59475;52.464;13.590;2023-05-20T12:14:16;19.70;62.33
71627;DHT22;59475;52.464;13.590;2023-05-20T12:16:42;19.43;62.16
71627;DHT22;59475;52.464;13.590;2023-05-20T12:19:07;18.89;63.41
71627;DHT22;59475;52.464;13.590;2023-05-20T12:21:33;18.84;64.44
71627;DHT22;59475;52.464;13.590;2023-05-20T12:23:59;18.88;64.20
71627;DHT22;59475;52.464;13.590;2023-05-20T12:26:28;19.41;62.70
71627;DHT22;59475;52.464;13.590;2023-05-20T12:28:54;19.71;61.19
71627;DHT22;59475;52.464;13.590;2023-05-20T12:31:20;19.67;62.06
71627;DHT22;59475;52.464;13.590;2023-05-20T12:33:46;19.68;61.88
71627;DHT22;59475;52.464;13.590;2023-05-20T12:36:12;19.75;61.65
71627;DHT22;59475;52.464;13.590;2023-05-20T12:38:37;19.81;61.76
71627;DHT22;59475;52.464;13.590;2023-05-20T12:41:03;19.09;63.18
71627;DHT22;59475;52.464;13.590;2023-05-20T12:43:28;18.30;64.67
71627;DHT22;59475;52.464;13.590;2023-05-20T12:45:54;18.27;65.47
71627;DHT22;59475;52.464;13.590;2023-05-20T12:48:20;18.16;65.82
71627;DHT22;59475;52.464;13.590;2023-05-20T12:50:45;18.10;65.93
71627;DHT22;59475;52.464;13.590;2023-05-20T12:53:10;18.04;66.20
71627;DHT22;59475;52.464;13.590;2023-05-20T12:55:36;18.10;66.65
71627;DHT22;59475;52.464;13.590;2023-05-20T12:58:02;18.09;66.52
71627;DHT22;59475;52.464;13.590;2023-05-20T13:00:28;18.27;66.34
71627;DHT22;59475;52.464;13.590;2023-05-20T13:02:53;18.79;65.46
71627;DHT22;59475;52.464;13.590;2023-05-20T13:05:19;19.16;63.15
71627;DHT22;59475;52.464;13.590;2023-05-20T13:07:44;19.41;62.98
71627;DHT22;59475;52.464;13.590;2023-05-20T13:10:10;19.54;62.64
71627;DHT22;59475;52.464;13.590;2023-05-20T13:12:36;19.74;62.51
71627;DHT22;59475;52.464;13.590;2023-05-20T13:15:02;19.83;62.54
71627;DHT22;59475;52.464;13.590;2023-05-20T13:17:28;19.47;62.20
71627;DHT22;59475;52.464;13.590;2023-05-20T13:19:54;19.65;62.92
71627;DHT22;59475;52.464;13.590;2023-05-20T13:22:19;19.81;61.94
71627;DHT22;59475;52.464;13.590;2023-05-20T13:24:45;19.60;62.36
71627;DHT22;59475;52.464;13.590;2023-05-20T13:27:10;19.51;62.43
71627;DHT22;59475;52.464;13.590;2023-05-20T13:29:36;19.61;62.95
71627;DHT22;59475;52.464;13.590;2023-05-20T13:32:02;19.70;62.71
71627;DHT22;59475;52.464;13.590;2023-05-20T13:34:29;19.85;62.21
71627;DHT22;59475;52.464;13.590;2023-05-20T13:36:54;19.81;61.71
71627;DHT22;59475;52.464;13.590;2023-05-20T13:39:20;19.88;62.33
71627;DHT22;59475;52.464;13.590;2023-05-20T13:41:45;19.98;62.20
71627;DHT22;59475;52.464;13.590;2023-05-20T13:44:11;19.88;61.51
71627;DHT22;59475;52.464;13.590;2023-05-20T13:46:36;19.75;61.82
71627;DHT22;59475;52.464;13.590;2023-05-20T13:49:01;19.46;62.71
71627;DHT22;59475;52.464;13.590;2023-05-20T13:51:29;19.47;62.97
71627;DHT22;59475;52.464;13.590;2023-05-20T13:53:54;19.72;62.15
71627;DHT22;59475;52.464;13.590;2023-05-20T13:56:20;19.58;62.42
71627;DHT22;59475;52.464;13.590;2023-05-20T13:58:45;19.58;62.69
71627;DHT22;59475;52.464;13.590;2023-05-20T14:01:11;19.43;62.55
71627;DHT22;59475;52.464;13.590;2023-05-20T14:03:36;19.51;63.00
71627;DHT22;59475;52.464;13.590;2023-05-20T14:06:04;19.57;63.00
71627;DHT22;59475;52.464;13.590;2023-05-20T14:08:29;19.49;63.18
71627;DHT22;59475;52.464;13.590;2023-05-20T14:10:55;19.63;63.31
71627;DHT22;59475;52.464;13.590;2023-05-20T14:13:21;19.72;62.39
71627;DHT22;59475;52.464;13.590;2023-05-20T14:15:47;19.91;62.47
71627;DHT22;59475;52.464;13.590;2023-05-20T14:18:13;19.91;61.70
71627;DHT22;59475;52.464;13.590;2023-05-20T14:20:38;19.98;62.47
71627;DHT22;59475;52.464;13.590;2023-05-20T14:23:04;20.02;61.47
71627;DHT22;59475;52.464;13.590;2023-05-20T14:25:29;19.95;61.58
71627;DHT22;59475;52.464;13.590;2023-05-20T14:27:54;19.85;62.28
71627;DHT22;59475;52.464;13.590;2023-05-20T14:30:20;19.74;61.86
71627;DHT22;59475;52.464;13.590;2023-05-20T14:32:45;19.68;62.12
71627;DHT22;59475;52.464;13.590;2023-05-20T14:35:11;19.72;62.66
71627;DHT22;59475;52.464;13.590;2023-05-20T14:37:36;19.83;62.35
71627;DHT22;59475;52.464;13.590;2023-05-20T14:40:03;20.02;62.71
71627;DHT22;59475;52.464;13.590;2023-05-20T14:42:29;19.99;61.83
71627;DHT22;59475;52.464;13.590;2023-05-20T14:44:54;20.09;61.54
71627;DHT22;59475;52.464;13.590;2023-05-20T14:47:19;20.10;61.95
71627;DHT22;59475;52.464;13.590;2023-05-20T14:49:46;20.25;61.69
71627;DHT22;59475;52.464;13.590;2023-05-20T14:52:14;20.15;61.54
71627;DHT22;59475;52.464;13.590;2023-05-20T14:54:39;20.09;61.88
71627;DHT22;59475;52.464;13.590;2023-05-20T14:57:05;19.99;61.72
71627;DHT22;59475;52.464;13.590;2023-05-20T14:59:31;20.02;62.73
71627;DHT22;59475;52.464;13.590;2023-05-20T15:01:56;20.02;62.17
71627;DHT22;59475;52.464;13.590;2023-05-20T15:04:22;19.95;61.87
71627;DHT22;59475;52.464;13.590;2023-05-20T15:06:47;19.88;62.59
71627;DHT22;59475;52.464;13.590;2023-05-20T15:09:12;19.95;62.17
71627;DHT22;59475;52.464;13.590;2023-05-20T15:11:38;19.86;61.96
71627;DHT22;59475;52.464;13.590;2023-05-20T15:14:04;19.96;62.30
71627;DHT22;59475;52.464;13.590;2023-05-20T15:16:29;19.96;61.98
71627;DHT22;59475;52.464;13.590;2023-05-20T15:18:55;20.02;61.94
71627;DHT22;59475;52.464;13.590;2023-05-20T15:21:20;19.98;62.15